createdAt,value
2019-05-19T00:00:38.787Z,1010.45
2019-05-19T00:01:38.782Z,1010.45
2019-05-19T00:02:40.846Z,1010.44
2019-05-19T00:03:38.829Z,1010.40
2019-05-19T00:04:38.748Z,1010.43
2019-05-19T00:05:38.772Z,1010.41
2019-05-19T00:06:38.799Z,1010.42
2019-05-19T00:07:38.723Z,1010.39
2019-05-19T00:08:38.710Z,1010.33
2019-05-19T00:09:38.756Z,1010.43
2019-05-19T00:10:38.685Z,1010.41
2019-05-19T00:11:38.670Z,1010.40
2019-05-19T00:12:38.659Z,1010.42
2019-05-19T00:13:38.649Z,1010.42
2019-05-19T00:14:38.690Z,1010.47
2019-05-19T00:15:38.642Z,1010.47
2019-05-19T00:16:38.627Z,1010.51
2019-05-19T00:17:38.599Z,1010.43
2019-05-19T00:18:38.598Z,1010.47
2019-05-19T00:19:38.586Z,1010.47
2019-05-19T00:20:38.661Z,1010.45
2019-05-19T00:21:38.601Z,1010.52
2019-05-19T00:22:38.555Z,1010.49
2019-05-19T00:23:38.539Z,1010.49
2019-05-19T00:24:38.531Z,1010.47
2019-05-19T00:25:38.522Z,1010.45
2019-05-19T00:26:38.511Z,1010.57
2019-05-19T00:27:38.623Z,1010.47
2019-05-19T00:28:45.471Z,1010.51
2019-05-19T00:29:38.476Z,1010.52
2019-05-19T00:30:38.468Z,1010.54
2019-05-19T00:31:38.462Z,1010.57
2019-05-19T00:32:38.446Z,1010.52
2019-05-19T00:33:38.454Z,1010.51
2019-05-19T00:34:38.432Z,1010.44
2019-05-19T00:35:38.431Z,1010.53
2019-05-19T00:36:38.397Z,1010.53
2019-05-19T00:37:38.410Z,1010.53
2019-05-19T00:38:38.384Z,1010.57
2019-05-19T00:39:38.370Z,1010.51
2019-05-19T00:40:38.407Z,1010.56
2019-05-19T00:41:38.346Z,1010.49
2019-05-19T00:42:38.354Z,1010.49
2019-05-19T00:43:38.389Z,1010.44
2019-05-19T00:44:38.332Z,1010.48
2019-05-19T00:45:38.317Z,1010.49
2019-05-19T00:46:38.289Z,1010.45
2019-05-19T00:47:38.288Z,1010.48
2019-05-19T00:48:38.289Z,1010.51
2019-05-19T00:49:41.486Z,1010.40
2019-05-19T00:50:38.251Z,1010.48
2019-05-19T00:51:38.287Z,1010.42
2019-05-19T00:52:38.235Z,1010.42
2019-05-19T00:53:38.226Z,1010.42
2019-05-19T00:54:38.228Z,1010.42
2019-05-19T00:55:38.198Z,1010.43
2019-05-19T00:56:38.191Z,1010.43
2019-05-19T00:57:38.240Z,1010.41
2019-05-19T00:58:38.168Z,1010.42
2019-05-19T00:59:38.197Z,1010.42
2019-05-19T01:00:45.125Z,1010.41
2019-05-19T01:01:38.133Z,1010.40
2019-05-19T01:02:38.122Z,1010.42
2019-05-19T01:03:38.123Z,1010.43
2019-05-19T01:04:38.108Z,1010.44
2019-05-19T01:05:38.112Z,1010.38
2019-05-19T01:06:38.105Z,1010.35
2019-05-19T01:07:38.069Z,1010.38
2019-05-19T01:08:38.071Z,1010.42
2019-05-19T01:09:38.053Z,1010.41
2019-05-19T01:10:38.061Z,1010.37
2019-05-19T01:11:38.100Z,1010.43
2019-05-19T01:12:38.024Z,1010.47
2019-05-19T01:13:38.008Z,1010.46
2019-05-19T01:14:38.056Z,1010.46
2019-05-19T01:15:37.989Z,1010.46
2019-05-19T01:16:38.022Z,1010.51
2019-05-19T01:17:37.974Z,1010.47
2019-05-19T01:18:37.954Z,1010.51
2019-05-19T01:19:38.005Z,1010.53
2019-05-19T01:20:37.933Z,1010.50
2019-05-19T01:21:37.919Z,1010.51
2019-05-19T01:22:37.942Z,1010.58
2019-05-19T01:23:37.899Z,1010.59
2019-05-19T01:24:37.902Z,1010.54
2019-05-19T01:25:37.956Z,1010.56
2019-05-19T01:26:37.869Z,1010.57
2019-05-19T01:27:37.870Z,1010.60
2019-05-19T01:28:37.850Z,1010.52
2019-05-19T01:29:37.843Z,1010.52
2019-05-19T01:30:37.830Z,1010.50
2019-05-19T01:31:37.886Z,1010.50
2019-05-19T01:32:44.779Z,1010.47
2019-05-19T01:33:37.797Z,1010.48
2019-05-19T01:34:37.783Z,1010.48
2019-05-19T01:35:37.773Z,1010.45
2019-05-19T01:36:37.760Z,1010.49
2019-05-19T01:37:37.776Z,1010.44
2019-05-19T01:38:37.753Z,1010.49
2019-05-19T01:39:37.734Z,1010.43
2019-05-19T01:40:37.718Z,1010.47
2019-05-19T01:41:37.715Z,1010.49
2019-05-19T01:42:37.867Z,1010.49
2019-05-19T01:43:37.741Z,1010.54
2019-05-19T01:44:37.698Z,1010.51
2019-05-19T01:45:37.670Z,1010.47
2019-05-19T01:46:37.722Z,1010.53
2019-05-19T01:47:37.651Z,1010.50
2019-05-19T01:48:37.701Z,1010.46
2019-05-19T01:49:37.678Z,1010.51
2019-05-19T01:50:37.618Z,1010.58
2019-05-19T01:51:37.646Z,1010.53
2019-05-19T01:52:37.590Z,1010.51
2019-05-19T01:53:37.584Z,1010.49
2019-05-19T01:54:37.571Z,1010.47
2019-05-19T01:55:37.588Z,1010.51
2019-05-19T01:56:37.558Z,1010.50
2019-05-19T01:57:37.555Z,1010.50
2019-05-19T01:58:37.578Z,1010.54
2019-05-19T01:59:37.522Z,1010.53
2019-05-19T02:00:37.517Z,1010.55
2019-05-19T02:01:37.503Z,1010.54
2019-05-19T02:02:37.489Z,1010.63
2019-05-19T02:03:37.479Z,1010.62
2019-05-19T02:04:44.444Z,1010.56
2019-05-19T02:05:37.460Z,1010.57
2019-05-19T02:06:37.446Z,1010.60
2019-05-19T02:07:37.443Z,1010.57
2019-05-19T02:08:37.427Z,1010.57
2019-05-19T02:09:37.421Z,1010.55
2019-05-19T02:10:37.443Z,1010.57
2019-05-19T02:11:37.387Z,1010.58
2019-05-19T02:12:37.384Z,1010.53
2019-05-19T02:13:37.369Z,1010.52
2019-05-19T02:14:37.390Z,1010.50
2019-05-19T02:15:37.343Z,1010.52
2019-05-19T02:16:37.349Z,1010.54
2019-05-19T02:17:37.341Z,1010.50
2019-05-19T02:18:37.318Z,1010.50
2019-05-19T02:19:37.299Z,1010.54
2019-05-19T02:20:37.302Z,1010.48
2019-05-19T02:21:37.287Z,1010.53
2019-05-19T02:22:37.274Z,1010.49
2019-05-19T02:23:37.271Z,1010.53
2019-05-19T02:24:37.269Z,1010.51
2019-05-19T02:25:37.251Z,1010.58
2019-05-19T02:26:37.234Z,1010.54
2019-05-19T02:27:37.255Z,1010.54
2019-05-19T02:28:37.214Z,1010.55
2019-05-19T02:29:37.199Z,1010.63
2019-05-19T02:30:37.195Z,1010.56
2019-05-19T02:31:37.183Z,1010.57
2019-05-19T02:32:37.180Z,1010.54
2019-05-19T02:33:37.169Z,1010.48
2019-05-19T02:34:37.204Z,1010.52
2019-05-19T02:35:37.137Z,1010.50
2019-05-19T02:36:44.955Z,1010.46
2019-05-19T02:37:37.122Z,1010.47
2019-05-19T02:38:37.118Z,1010.45
2019-05-19T02:39:37.088Z,1010.38
2019-05-19T02:40:37.076Z,1010.48
2019-05-19T02:41:37.074Z,1010.48
2019-05-19T02:42:37.151Z,1010.41
2019-05-19T02:43:37.049Z,1010.42
2019-05-19T02:44:37.042Z,1010.45
2019-05-19T02:45:37.075Z,1010.36
2019-05-19T02:46:37.012Z,1010.37
2019-05-19T02:47:37.015Z,1010.39
2019-05-19T02:48:37.039Z,1010.29
2019-05-19T02:49:36.995Z,1010.36
2019-05-19T02:50:51.018Z,1010.27
2019-05-19T02:51:37.969Z,1010.29
2019-05-19T02:52:37.026Z,1010.32
2019-05-19T02:53:36.945Z,1010.30
2019-05-19T02:54:36.941Z,1010.33
2019-05-19T02:55:36.924Z,1010.26
2019-05-19T02:56:36.912Z,1010.27
2019-05-19T02:57:36.899Z,1010.27
2019-05-19T02:58:36.917Z,1010.24
2019-05-19T02:59:36.967Z,1010.23
2019-05-19T03:00:36.873Z,1010.22
2019-05-19T03:01:36.857Z,1010.23
2019-05-19T03:02:36.853Z,1010.23
2019-05-19T03:03:36.839Z,1010.21
2019-05-19T03:04:36.837Z,1010.21
2019-05-19T03:05:36.827Z,1010.16
2019-05-19T03:06:36.846Z,1010.20
2019-05-19T03:07:36.865Z,1010.17
2019-05-19T03:08:43.765Z,1010.17
2019-05-19T03:09:36.839Z,1010.19
2019-05-19T03:10:36.761Z,1010.19
2019-05-19T03:11:36.746Z,1010.20
2019-05-19T03:12:36.741Z,1010.20
2019-05-19T03:13:36.729Z,1010.22
2019-05-19T03:14:36.724Z,1010.20
2019-05-19T03:15:36.774Z,1010.23
2019-05-19T03:16:36.698Z,1010.20
2019-05-19T03:17:36.687Z,1010.25
2019-05-19T03:18:36.755Z,1010.19
2019-05-19T03:19:36.689Z,1010.23
2019-05-19T03:20:36.660Z,1010.22
2019-05-19T03:21:36.647Z,1010.20
2019-05-19T03:22:36.633Z,1010.23
2019-05-19T03:23:36.646Z,1010.25
2019-05-19T03:24:36.652Z,1010.26
2019-05-19T03:25:36.660Z,1010.22
2019-05-19T03:26:36.597Z,1010.23
2019-05-19T03:27:36.588Z,1010.31
2019-05-19T03:28:36.578Z,1010.22
2019-05-19T03:29:36.566Z,1010.29
2019-05-19T03:30:36.622Z,1010.24
2019-05-19T03:31:36.552Z,1010.21
2019-05-19T03:32:36.532Z,1010.23
2019-05-19T03:33:36.535Z,1010.13
2019-05-19T03:34:36.506Z,1010.19
2019-05-19T03:35:36.506Z,1010.21
2019-05-19T03:36:36.505Z,1010.19
2019-05-19T03:38:36.475Z,1010.18
2019-05-19T03:39:36.449Z,1010.25
2019-05-19T03:40:43.425Z,1010.23
2019-05-19T03:41:36.444Z,1010.20
2019-05-19T03:42:36.416Z,1010.25
2019-05-19T03:43:36.407Z,1010.27
2019-05-19T03:44:36.400Z,1010.22
2019-05-19T03:45:36.392Z,1010.26
2019-05-19T03:46:36.391Z,1010.26
2019-05-19T03:47:36.449Z,1010.23
2019-05-19T03:48:36.347Z,1010.29
2019-05-19T03:49:36.347Z,1010.18
2019-05-19T03:50:36.377Z,1010.23
2019-05-19T03:51:36.332Z,1010.30
2019-05-19T03:52:36.320Z,1010.25
2019-05-19T03:53:36.324Z,1010.18
2019-05-19T03:54:36.290Z,1010.20
2019-05-19T03:55:36.373Z,1010.17
2019-05-19T03:56:36.269Z,1010.20
2019-05-19T03:57:36.258Z,1010.17
2019-05-19T03:58:36.258Z,1010.24
2019-05-19T03:59:36.260Z,1010.23
2019-05-19T04:00:36.228Z,1010.21
2019-05-19T04:01:36.280Z,1010.21
2019-05-19T04:02:36.206Z,1010.20
2019-05-19T04:03:36.200Z,1010.18
2019-05-19T04:04:36.201Z,1010.16
2019-05-19T04:05:36.177Z,1010.30
2019-05-19T04:06:36.162Z,1010.23
2019-05-19T04:07:36.306Z,1010.25
2019-05-19T04:08:36.138Z,1010.27
2019-05-19T04:09:36.132Z,1010.28
2019-05-19T04:10:36.142Z,1010.29
2019-05-19T04:11:36.110Z,1010.34
2019-05-19T04:12:44.059Z,1010.35
2019-05-19T04:13:36.086Z,1010.42
2019-05-19T04:14:36.076Z,1010.40
2019-05-19T04:15:36.079Z,1010.41
2019-05-19T04:16:36.110Z,1010.41
2019-05-19T04:17:36.049Z,1010.36
2019-05-19T04:18:36.032Z,1010.38
2019-05-19T04:19:36.024Z,1010.42
2019-05-19T04:20:36.083Z,1010.44
2019-05-19T04:21:48.411Z,1010.42
2019-05-19T04:22:36.993Z,1010.38
2019-05-19T04:23:35.975Z,1010.44
2019-05-19T04:24:35.993Z,1010.47
2019-05-19T04:25:35.993Z,1010.47
2019-05-19T04:26:35.949Z,1010.47
2019-05-19T04:27:35.942Z,1010.46
2019-05-19T04:28:35.924Z,1010.46
2019-05-19T04:29:39.199Z,1010.51
2019-05-19T04:30:35.899Z,1010.44
2019-05-19T04:31:35.907Z,1010.46
2019-05-19T04:32:35.885Z,1010.49
2019-05-19T04:33:35.870Z,1010.47
2019-05-19T04:34:35.871Z,1010.40
2019-05-19T04:35:35.891Z,1010.49
2019-05-19T04:36:35.848Z,1010.48
2019-05-19T04:37:35.828Z,1010.47
2019-05-19T04:38:35.824Z,1010.50
2019-05-19T04:39:35.817Z,1010.53
2019-05-19T04:40:36.318Z,1010.54
2019-05-19T04:41:49.096Z,1010.52
2019-05-19T04:42:35.771Z,1010.49
2019-05-19T04:43:35.758Z,1010.56
2019-05-19T04:44:42.732Z,1010.54
2019-05-19T04:45:35.739Z,1010.58
2019-05-19T04:46:35.742Z,1010.64
2019-05-19T04:47:35.761Z,1010.64
2019-05-19T04:48:35.712Z,1010.59
2019-05-19T04:49:35.707Z,1010.66
2019-05-19T04:50:35.700Z,1010.66
2019-05-19T04:51:35.708Z,1010.62
2019-05-19T04:52:35.673Z,1010.62
2019-05-19T04:53:35.741Z,1010.62
2019-05-19T04:54:35.726Z,1010.62
2019-05-19T04:55:35.638Z,1010.67
2019-05-19T04:56:35.624Z,1010.61
2019-05-19T04:57:35.632Z,1010.67
2019-05-19T04:58:35.630Z,1010.61
2019-05-19T04:59:35.701Z,1010.62
2019-05-19T05:00:35.581Z,1010.65
2019-05-19T05:01:35.566Z,1010.60
2019-05-19T05:02:35.640Z,1010.64
2019-05-19T05:03:35.551Z,1010.59
2019-05-19T05:04:35.544Z,1010.65
2019-05-19T05:05:35.574Z,1010.65
2019-05-19T05:06:35.522Z,1010.67
2019-05-19T05:07:35.508Z,1010.62
2019-05-19T05:08:35.504Z,1010.60
2019-05-19T05:09:35.494Z,1010.63
2019-05-19T05:10:35.474Z,1010.62
2019-05-19T05:11:35.494Z,1010.63
2019-05-19T05:12:35.526Z,1010.67
2019-05-19T05:13:35.441Z,1010.65
2019-05-19T05:14:35.467Z,1010.58
2019-05-19T05:15:35.417Z,1010.61
2019-05-19T05:16:42.930Z,1010.60
2019-05-19T05:17:35.394Z,1010.57
2019-05-19T05:18:35.385Z,1010.58
2019-05-19T05:19:35.378Z,1010.60
2019-05-19T05:20:35.383Z,1010.49
2019-05-19T05:21:35.361Z,1010.58
2019-05-19T05:22:35.476Z,1010.59
2019-05-19T05:23:35.335Z,1010.57
2019-05-19T05:24:35.324Z,1010.56
2019-05-19T05:25:35.342Z,1010.58
2019-05-19T05:26:35.305Z,1010.59
2019-05-19T05:27:35.295Z,1010.56
2019-05-19T05:28:35.281Z,1010.63
2019-05-19T05:29:35.271Z,1010.59
2019-05-19T05:30:35.323Z,1010.58
2019-05-19T05:31:35.256Z,1010.59
2019-05-19T05:32:35.243Z,1010.54
2019-05-19T05:33:35.229Z,1010.50
2019-05-19T05:34:35.218Z,1010.54
2019-05-19T05:35:35.208Z,1010.56
2019-05-19T05:36:35.264Z,1010.55
2019-05-19T05:37:35.186Z,1010.55
2019-05-19T05:38:35.171Z,1010.56
2019-05-19T05:39:35.164Z,1010.56
2019-05-19T05:40:35.146Z,1010.55
2019-05-19T05:41:35.148Z,1010.61
2019-05-19T05:42:35.225Z,1010.64
2019-05-19T05:43:35.119Z,1010.58
2019-05-19T05:44:35.111Z,1010.57
2019-05-19T05:45:35.105Z,1010.56
2019-05-19T05:46:35.083Z,1010.51
2019-05-19T05:47:35.080Z,1010.55
2019-05-19T05:48:42.643Z,1010.60
2019-05-19T05:49:35.058Z,1010.55
2019-05-19T05:50:35.046Z,1010.54
2019-05-19T05:51:35.041Z,1010.54
2019-05-19T05:52:38.617Z,1010.51
2019-05-19T05:53:35.006Z,1010.54
2019-05-19T05:54:35.007Z,1010.53
2019-05-19T05:55:35.031Z,1010.53
2019-05-19T05:56:34.983Z,1010.46
2019-05-19T05:57:34.977Z,1010.55
2019-05-19T05:58:34.994Z,1010.53
2019-05-19T05:59:34.946Z,1010.48
2019-05-19T06:00:34.932Z,1010.49
2019-05-19T06:01:34.940Z,1010.46
2019-05-19T06:02:34.965Z,1010.50
2019-05-19T06:03:34.948Z,1010.50
2019-05-19T06:04:34.949Z,1010.46
2019-05-19T06:05:34.887Z,1010.46
2019-05-19T06:06:34.873Z,1010.47
2019-05-19T06:07:34.862Z,1010.41
2019-05-19T06:08:34.890Z,1010.49
2019-05-19T06:09:34.840Z,1010.49
2019-05-19T06:10:34.841Z,1010.48
2019-05-19T06:11:34.822Z,1010.44
2019-05-19T06:12:34.813Z,1010.53
2019-05-19T06:13:34.795Z,1010.48
2019-05-19T06:14:34.799Z,1010.53
2019-05-19T06:15:34.782Z,1010.51
2019-05-19T06:16:34.797Z,1010.60
2019-05-19T06:17:34.835Z,1010.55
2019-05-19T06:18:34.798Z,1010.58
2019-05-19T06:19:34.734Z,1010.46
2019-05-19T06:20:42.167Z,1010.57
2019-05-19T06:21:34.712Z,1010.47
2019-05-19T06:22:34.792Z,1010.48
2019-05-19T06:23:34.692Z,1010.45
2019-05-19T06:24:34.681Z,1010.48
2019-05-19T06:25:34.751Z,1010.53
2019-05-19T06:26:34.669Z,1010.48
2019-05-19T06:27:34.694Z,1010.53
2019-05-19T06:28:34.639Z,1010.52
2019-05-19T06:29:34.639Z,1010.55
2019-05-19T06:30:34.615Z,1010.57
2019-05-19T06:31:34.629Z,1010.57
2019-05-19T06:32:34.602Z,1010.54
2019-05-19T06:33:34.585Z,1010.57
2019-05-19T06:34:34.584Z,1010.53
2019-05-19T06:35:34.564Z,1010.55
2019-05-19T06:36:34.586Z,1010.67
2019-05-19T06:37:34.547Z,1010.60
2019-05-19T06:38:34.591Z,1010.70
2019-05-19T06:39:34.524Z,1010.64
2019-05-19T06:40:34.506Z,1010.64
2019-05-19T06:41:34.500Z,1010.64
2019-05-19T06:42:34.518Z,1010.66
2019-05-19T06:43:34.478Z,1010.68
2019-05-19T06:44:34.468Z,1010.66
2019-05-19T06:45:34.527Z,1010.71
2019-05-19T06:46:34.447Z,1010.68
2019-05-19T06:47:34.451Z,1010.69
2019-05-19T06:48:34.433Z,1010.68
2019-05-19T06:49:34.419Z,1010.66
2019-05-19T06:50:34.403Z,1010.70
2019-05-19T06:51:34.394Z,1010.69
2019-05-19T06:52:41.390Z,1010.75
2019-05-19T06:53:34.381Z,1010.79
2019-05-19T06:54:34.355Z,1010.78
2019-05-19T06:55:34.382Z,1010.69
2019-05-19T06:56:34.339Z,1010.70
2019-05-19T06:57:34.336Z,1010.70
2019-05-19T06:58:34.333Z,1010.77
2019-05-19T06:59:34.321Z,1010.74
2019-05-19T07:00:34.359Z,1010.69
2019-05-19T07:01:34.290Z,1010.67
2019-05-19T07:02:35.197Z,1010.74
2019-05-19T07:03:34.268Z,1010.72
2019-05-19T07:04:34.298Z,1010.68
2019-05-19T07:05:34.244Z,1010.68
2019-05-19T07:06:34.409Z,1010.67
2019-05-19T07:07:34.259Z,1010.79
2019-05-19T07:08:34.209Z,1010.73
2019-05-19T07:09:34.265Z,1010.68
2019-05-19T07:10:34.229Z,1010.75
2019-05-19T07:11:34.187Z,1010.70
2019-05-19T07:12:34.168Z,1010.70
2019-05-19T07:13:34.190Z,1010.72
2019-05-19T07:14:34.146Z,1010.69
2019-05-19T07:15:34.138Z,1010.67
2019-05-19T07:16:34.139Z,1010.67
2019-05-19T07:17:34.111Z,1010.72
2019-05-19T07:18:34.102Z,1010.69
2019-05-19T07:19:34.099Z,1010.74
2019-05-19T07:20:34.079Z,1010.69
2019-05-19T07:21:34.120Z,1010.68
2019-05-19T07:22:37.434Z,1010.69
2019-05-19T07:23:34.045Z,1010.70
2019-05-19T07:24:41.021Z,1010.69
2019-05-19T07:25:34.027Z,1010.67
2019-05-19T07:26:34.021Z,1010.75
2019-05-19T07:27:34.052Z,1010.72
2019-05-19T07:28:33.997Z,1010.71
2019-05-19T07:29:33.994Z,1010.75
2019-05-19T07:30:33.982Z,1010.77
2019-05-19T07:31:33.978Z,1010.74
2019-05-19T07:32:33.954Z,1010.65
2019-05-19T07:33:33.986Z,1010.73
2019-05-19T07:34:33.973Z,1010.72
2019-05-19T07:35:33.924Z,1010.72
2019-05-19T07:36:33.910Z,1010.71
2019-05-19T07:37:33.901Z,1010.70
2019-05-19T07:38:33.884Z,1010.67
2019-05-19T07:39:33.982Z,1010.68
2019-05-19T07:40:33.866Z,1010.72
2019-05-19T07:41:33.856Z,1010.75
2019-05-19T07:42:33.867Z,1010.73
2019-05-19T07:43:33.842Z,1010.77
2019-05-19T07:44:33.830Z,1010.78
2019-05-19T07:45:33.866Z,1010.75
2019-05-19T07:46:33.808Z,1010.76
2019-05-19T07:47:33.789Z,1010.75
2019-05-19T07:48:33.797Z,1010.81
2019-05-19T07:49:33.804Z,1010.77
2019-05-19T07:50:37.517Z,1010.78
2019-05-19T07:51:33.785Z,1010.79
2019-05-19T07:52:33.747Z,1010.76
2019-05-19T07:53:42.647Z,1010.65
2019-05-19T07:54:34.723Z,1010.71
2019-05-19T07:55:33.711Z,1010.72
2019-05-19T07:56:41.183Z,1010.74
2019-05-19T07:57:33.685Z,1010.72
2019-05-19T07:58:33.679Z,1010.76
2019-05-19T07:59:33.712Z,1010.73
2019-05-19T08:00:33.650Z,1010.74
2019-05-19T08:01:33.647Z,1010.70
2019-05-19T08:02:33.687Z,1010.75
2019-05-19T08:03:33.645Z,1010.71
2019-05-19T08:04:33.618Z,1010.72
2019-05-19T08:05:33.629Z,1010.74
2019-05-19T08:06:33.595Z,1010.71
2019-05-19T08:07:33.576Z,1010.76
2019-05-19T08:08:33.592Z,1010.68
2019-05-19T08:09:33.557Z,1010.70
2019-05-19T08:10:33.562Z,1010.69
2019-05-19T08:11:33.536Z,1010.72
2019-05-19T08:12:33.526Z,1010.68
2019-05-19T08:13:33.512Z,1010.67
2019-05-19T08:14:33.506Z,1010.74
2019-05-19T08:15:33.524Z,1010.72
2019-05-19T08:16:33.485Z,1010.67
2019-05-19T08:17:33.471Z,1010.63
2019-05-19T08:18:33.459Z,1010.68
2019-05-19T08:19:33.443Z,1010.66
2019-05-19T08:20:33.434Z,1010.61
2019-05-19T08:21:33.451Z,1010.68
2019-05-19T08:22:33.411Z,1010.62
2019-05-19T08:23:33.405Z,1010.68
2019-05-19T08:24:33.394Z,1010.65
2019-05-19T08:25:33.384Z,1010.58
2019-05-19T08:26:33.410Z,1010.66
2019-05-19T08:27:33.368Z,1010.63
2019-05-19T08:28:40.337Z,1010.61
2019-05-19T08:29:33.340Z,1010.67
2019-05-19T08:30:33.334Z,1010.65
2019-05-19T08:31:33.328Z,1010.65
2019-05-19T08:32:33.351Z,1010.64
2019-05-19T08:33:33.315Z,1010.64
2019-05-19T08:34:33.296Z,1010.64
2019-05-19T08:35:33.481Z,1010.59
2019-05-19T08:36:33.272Z,1010.64
2019-05-19T08:37:33.279Z,1010.66
2019-05-19T08:38:33.303Z,1010.64
2019-05-19T08:39:33.298Z,1010.66
2019-05-19T08:40:33.235Z,1010.62
2019-05-19T08:41:33.222Z,1010.58
2019-05-19T08:42:33.208Z,1010.62
2019-05-19T08:43:33.249Z,1010.56
2019-05-19T08:44:33.223Z,1010.60
2019-05-19T08:45:33.209Z,1010.59
2019-05-19T08:46:33.161Z,1010.60
2019-05-19T08:47:33.174Z,1010.57
2019-05-19T08:48:33.152Z,1010.55
2019-05-19T08:49:33.166Z,1010.56
2019-05-19T08:50:33.210Z,1010.57
2019-05-19T08:51:33.124Z,1010.51
2019-05-19T08:52:33.141Z,1010.54
2019-05-19T08:53:33.094Z,1010.52
2019-05-19T08:54:33.103Z,1010.52
2019-05-19T08:55:33.074Z,1010.65
2019-05-19T08:56:33.071Z,1010.55
2019-05-19T08:57:33.058Z,1010.56
2019-05-19T08:58:33.068Z,1010.61
2019-05-19T08:59:33.081Z,1010.59
2019-05-19T09:00:40.006Z,1010.56
2019-05-19T09:01:33.007Z,1010.55
2019-05-19T09:02:33.022Z,1010.56
2019-05-19T09:03:32.994Z,1010.51
2019-05-19T09:04:32.980Z,1010.55
2019-05-19T09:05:33.016Z,1010.56
2019-05-19T09:06:32.958Z,1010.59
2019-05-19T09:07:32.967Z,1010.61
2019-05-19T09:08:32.937Z,1010.53
2019-05-19T09:09:32.940Z,1010.57
2019-05-19T09:10:32.918Z,1010.57
2019-05-19T09:11:32.916Z,1010.58
2019-05-19T09:12:32.929Z,1010.52
2019-05-19T09:13:32.897Z,1010.46
2019-05-19T09:14:32.879Z,1010.56
2019-05-19T09:15:32.872Z,1010.46
2019-05-19T09:16:32.913Z,1010.52
2019-05-19T09:17:32.849Z,1010.51
2019-05-19T09:18:32.841Z,1010.54
2019-05-19T09:19:32.823Z,1010.50
2019-05-19T09:20:32.822Z,1010.50
2019-05-19T09:21:32.824Z,1010.46
2019-05-19T09:22:32.807Z,1010.48
2019-05-19T09:23:32.792Z,1010.46
2019-05-19T09:24:32.774Z,1010.43
2019-05-19T09:25:32.769Z,1010.47
2019-05-19T09:26:32.755Z,1010.37
2019-05-19T09:27:32.752Z,1010.39
2019-05-19T09:28:32.737Z,1010.44
2019-05-19T09:29:32.724Z,1010.40
2019-05-19T09:30:32.715Z,1010.40
2019-05-19T09:31:32.710Z,1010.41
2019-05-19T09:32:42.317Z,1010.47
2019-05-19T09:33:32.685Z,1010.47
2019-05-19T09:34:32.674Z,1010.50
2019-05-19T09:35:32.662Z,1010.42
2019-05-19T09:36:32.655Z,1010.42
2019-05-19T09:37:32.649Z,1010.40
2019-05-19T09:38:32.658Z,1010.43
2019-05-19T09:39:32.631Z,1010.37
2019-05-19T09:40:32.611Z,1010.35
2019-05-19T09:41:32.629Z,1010.40
2019-05-19T09:42:32.587Z,1010.33
2019-05-19T09:43:32.600Z,1010.32
2019-05-19T09:44:32.573Z,1010.34
2019-05-19T09:45:32.562Z,1010.35
2019-05-19T09:46:32.543Z,1010.45
2019-05-19T09:47:32.677Z,1010.47
2019-05-19T09:48:32.573Z,1010.36
2019-05-19T09:49:32.525Z,1010.38
2019-05-19T09:50:32.504Z,1010.42
2019-05-19T09:51:32.498Z,1010.44
2019-05-19T09:52:32.480Z,1010.44
2019-05-19T09:53:32.472Z,1010.45
2019-05-19T09:54:44.091Z,1010.40
2019-05-19T09:55:33.444Z,1010.39
2019-05-19T09:56:32.555Z,1010.35
2019-05-19T09:57:32.459Z,1010.31
2019-05-19T09:58:32.418Z,1010.42
2019-05-19T09:59:32.406Z,1010.41
2019-05-19T10:00:32.416Z,1010.38
2019-05-19T10:01:32.381Z,1010.34
2019-05-19T10:02:32.379Z,1010.33
2019-05-19T10:03:32.359Z,1010.34
2019-05-19T10:04:39.356Z,1010.29
2019-05-19T10:05:32.388Z,1010.26
2019-05-19T10:06:32.326Z,1010.25
2019-05-19T10:07:32.318Z,1010.26
2019-05-19T10:08:32.313Z,1010.26
2019-05-19T10:09:32.301Z,1010.32
2019-05-19T10:10:32.285Z,1010.31
2019-05-19T10:11:32.307Z,1010.30
2019-05-19T10:12:32.291Z,1010.27
2019-05-19T10:13:32.287Z,1010.24
2019-05-19T10:14:32.248Z,1010.22
2019-05-19T10:15:32.271Z,1010.21
2019-05-19T10:16:32.244Z,1010.25
2019-05-19T10:17:32.272Z,1010.23
2019-05-19T10:18:32.204Z,1010.16
2019-05-19T10:19:32.194Z,1010.16
2019-05-19T10:20:32.175Z,1010.20
2019-05-19T10:21:32.264Z,1010.23
2019-05-19T10:22:32.167Z,1010.26
2019-05-19T10:23:32.144Z,1010.21
2019-05-19T10:24:32.280Z,1010.07
2019-05-19T10:25:32.122Z,1010.19
2019-05-19T10:26:32.117Z,1010.13
2019-05-19T10:27:32.164Z,1010.11
2019-05-19T10:28:32.084Z,1010.15
2019-05-19T10:29:32.076Z,1010.13
2019-05-19T10:30:32.064Z,1010.21
2019-05-19T10:31:32.059Z,1010.16
2019-05-19T10:32:32.044Z,1010.14
2019-05-19T10:33:32.047Z,1010.14
2019-05-19T10:34:32.039Z,1010.18
2019-05-19T10:35:32.010Z,1010.13
2019-05-19T10:36:39.489Z,1010.14
2019-05-19T10:37:31.988Z,1010.19
2019-05-19T10:38:32.019Z,1010.15
2019-05-19T10:39:31.969Z,1010.19
2019-05-19T10:40:31.954Z,1010.21
2019-05-19T10:41:31.950Z,1010.24
2019-05-19T10:42:31.937Z,1010.19
2019-05-19T10:43:31.964Z,1010.25
2019-05-19T10:44:31.979Z,1010.15
2019-05-19T10:45:31.897Z,1010.08
2019-05-19T10:46:31.891Z,1010.11
2019-05-19T10:47:31.890Z,1010.16
2019-05-19T10:48:31.865Z,1010.17
2019-05-19T10:49:31.862Z,1010.18
2019-05-19T10:50:31.863Z,1010.24
2019-05-19T10:51:31.851Z,1010.19
2019-05-19T10:52:31.823Z,1010.27
2019-05-19T10:53:31.817Z,1010.25
2019-05-19T10:54:31.806Z,1010.30
2019-05-19T10:55:36.686Z,1010.29
2019-05-19T10:56:32.786Z,1010.20
2019-05-19T10:57:31.775Z,1010.18
2019-05-19T10:58:31.769Z,1010.15
2019-05-19T10:59:31.748Z,1010.19
2019-05-19T11:00:31.743Z,1010.24
2019-05-19T11:01:31.746Z,1010.24
2019-05-19T11:02:31.713Z,1010.23
2019-05-19T11:03:31.713Z,1010.20
2019-05-19T11:04:31.695Z,1010.22
2019-05-19T11:05:31.685Z,1010.21
2019-05-19T11:06:31.686Z,1010.23
2019-05-19T11:07:31.665Z,1010.21
2019-05-19T11:08:38.653Z,1010.21
2019-05-19T11:09:31.638Z,1010.22
2019-05-19T11:10:31.639Z,1010.20
2019-05-19T11:11:31.673Z,1010.17
2019-05-19T11:12:31.611Z,1010.19
2019-05-19T11:13:31.606Z,1010.17
2019-05-19T11:14:31.597Z,1010.19
2019-05-19T11:15:31.577Z,1010.26
2019-05-19T11:16:31.588Z,1010.15
2019-05-19T11:17:31.632Z,1010.22
2019-05-19T11:18:31.551Z,1010.24
2019-05-19T11:19:31.567Z,1010.17
2019-05-19T11:20:31.527Z,1010.16
2019-05-19T11:21:31.514Z,1010.13
2019-05-19T11:22:31.520Z,1010.10
2019-05-19T11:23:31.504Z,1010.17
2019-05-19T11:24:31.479Z,1010.11
2019-05-19T11:25:34.165Z,1010.19
2019-05-19T11:26:31.463Z,1010.13
2019-05-19T11:27:31.504Z,1010.10
2019-05-19T11:28:31.467Z,1010.09
2019-05-19T11:29:31.446Z,1010.14
2019-05-19T11:30:31.427Z,1010.14
2019-05-19T11:31:31.407Z,1010.08
2019-05-19T11:32:31.395Z,1010.08
2019-05-19T11:33:31.408Z,1010.09
2019-05-19T11:34:31.373Z,1010.06
2019-05-19T11:35:31.382Z,1010.07
2019-05-19T11:36:31.344Z,1010.07
2019-05-19T11:37:31.333Z,1010.06
2019-05-19T11:38:31.334Z,1010.04
2019-05-19T11:39:31.323Z,1010.06
2019-05-19T11:40:38.284Z,1010.10
2019-05-19T11:41:31.296Z,1010.04
2019-05-19T11:42:31.286Z,1010.06
2019-05-19T11:43:31.272Z,1009.97
2019-05-19T11:44:31.294Z,1010.02
2019-05-19T11:45:31.251Z,1010.00
2019-05-19T11:46:31.266Z,1009.98
2019-05-19T11:47:31.247Z,1010.02
2019-05-19T11:48:31.217Z,1009.97
2019-05-19T11:49:31.224Z,1009.96
2019-05-19T11:50:31.199Z,1010.00
2019-05-19T11:51:31.197Z,1010.00
2019-05-19T11:52:31.175Z,1009.99
2019-05-19T11:53:31.165Z,1009.95
2019-05-19T11:54:31.165Z,1010.04
2019-05-19T11:55:31.184Z,1009.99
2019-05-19T11:56:31.137Z,1009.99
2019-05-19T11:57:31.121Z,1010.04
2019-05-19T11:58:31.122Z,1010.04
2019-05-19T11:59:31.101Z,1010.05
2019-05-19T12:00:31.092Z,1010.00
2019-05-19T12:01:31.089Z,1010.03
2019-05-19T12:02:31.077Z,1009.98
2019-05-19T12:03:31.085Z,1010.01
2019-05-19T12:04:31.047Z,1009.95
2019-05-19T12:05:31.084Z,1010.02
2019-05-19T12:06:39.606Z,1009.97